Flight Track Log - Related Links

Times and Time Zones

All times are in EDT time to prevent confusion due to time zone crossing. See the AAY844 flight status page for this flight to view local times or setup timezone preferences in your user account.

Time Position Orientation Groundspeed Altitude Reporting Facility
EDT Latitude Longitude Course Direction KTS MPH feet Rate Location/Type
Fri 03:03:51 PM 27.9333 -82.7000 24° Northeast 173 199 700  Level Tampa TRACON
Fri 03:05:03 PM 28.0000 -82.6667 24° Northeast 235 270 2,600 2,313 Climbing Tampa TRACON
Fri 03:07:03 PM 28.1478 -82.6667 360° North 230 265 8,100 2,433 Climbing Jacksonville Center
Fri 03:08:03 PM 28.2164 -82.6522 11° North 244 281 9,900 1,736 Climbing Jacksonville Center
Fri 03:09:04 PM 28.3061 -82.6261 14° North 287 330 11,600 1,650 Climbing Jacksonville Center
Fri 03:10:03 PM 28.4064 -82.5953 15° North 333 383 13,200 2,218 Climbing Jacksonville Center
Fri 03:11:03 PM 28.5106 -82.5714 11° North 363 418 16,000 2,250 Climbing Jacksonville Center
Fri 03:12:03 PM 28.6192 -82.5803 356° North 376 433 17,700 1,650 Climbing Jacksonville Center
Fri 03:13:03 PM 28.7317 -82.5872 357° North 390 449 19,300 1,650 Climbing Jacksonville Center
Fri 03:14:03 PM 28.8486 -82.5914 358° North 407 468 21,000 1,650 Climbing Jacksonville Center
Fri 03:15:03 PM 28.9678 -82.5983 357° North 417 480 22,600 1,450 Climbing Jacksonville Center
Fri 03:16:03 PM 29.0889 -82.6075 356° North 425 489 23,900 1,450 Climbing Jacksonville Center
Fri 03:17:03 PM 29.2119 -82.6119 358° North 436 502 25,500 1,636 Climbing Jacksonville Center
Fri 03:18:04 PM 29.3331 -82.6186 357° North 436 502 27,200 1,750 Climbing Jacksonville Center
Fri 03:19:03 PM 29.4667 -82.6253 358° North 436 502 29,000 1,500 Climbing Jacksonville Center
Fri 03:20:04 PM 29.5856 -82.6322 357° North 436 502 30,200 992 Climbing Jacksonville Center
Fri 03:21:04 PM 29.7067 -82.6367 358° North 436 502 31,000 403 Climbing Jacksonville Center
Fri 03:22:03 PM 29.8258 -82.6508 354° North 431 496 31,000  Level Jacksonville Center
Fri 03:23:04 PM 29.9469 -82.6578 357° North 425 489 31,000 149 Level Jacksonville Center
Fri 03:24:04 PM 30.0639 -82.6503 North 425 489 31,300 504 Climbing Jacksonville Center
Fri 03:25:03 PM 30.1828 -82.6258 10° North 420 483 32,000 750 Climbing Jacksonville Center
Fri 03:26:04 PM 30.3017 -82.5992 11° North 425 489 32,800 496 Climbing Jacksonville Center
Fri 03:27:04 PM 30.4206 -82.5722 11° North 430 495 33,000 50 Climbing Jacksonville Center
Fri 03:28:03 PM 30.5353 -82.5211 21° North 430 495 32,900  Descending Jacksonville Center
Fri 03:29:04 PM 30.6331 -82.4267 40° Northeast 435 501 33,000 50 Climbing Jacksonville Center
Fri 03:30:03 PM 30.7247 -82.3294 42° Northeast 435 501 33,000  Level Jacksonville Center
Fri 03:31:04 PM 30.8181 -82.2347 41° Northeast 441 507 33,000  Level Jacksonville Center
Fri 03:32:04 PM 30.9136 -82.1394 41° Northeast 446 513 33,000  Level Jacksonville Center
Fri 03:33:04 PM 31.0069 -82.0419 42° Northeast 446 513 33,000  Level Jacksonville Center
Fri 03:34:04 PM 31.1022 -81.9439 41° Northeast 446 513 33,000 -50 Level Jacksonville Center
Fri 03:35:04 PM 31.1956 -81.8458 42° Northeast 446 513 32,900  Descending Jacksonville Center
Fri 03:36:04 PM 31.2886 -81.7525 41° Northeast 439 505 33,000 50 Climbing Jacksonville Center
Fri 03:37:04 PM 31.3817 -81.6492 43° Northeast 447 514 33,000  Level Jacksonville Center
Fri 03:38:04 PM 31.4683 -81.5603 41° Northeast 453 521 33,000  Level Jacksonville Center
Fri 03:39:04 PM 31.5614 -81.4614 42° Northeast 453 521 33,000  Level Jacksonville Center
Fri 03:40:04 PM 31.6686 -81.3522 41° Northeast 453 521 33,000  Level Jacksonville Center
Fri 03:41:04 PM 31.7678 -81.2650 37° Northeast 453 521 33,000  Level Jacksonville Center
Fri 03:42:04 PM 31.8628 -81.1853 35° Northeast 453 521 33,000  Level Jacksonville Center
Fri 03:43:04 PM 31.9761 -81.0850 37° Northeast 458 527 33,000  Level Jacksonville Center
Fri 03:44:03 PM 32.0792 -80.9972 36° Northeast 458 527 33,000  Level Jacksonville Center
Fri 03:45:04 PM 32.1822 -80.9067 37° Northeast 458 527 33,000  Level Jacksonville Center
Fri 03:46:04 PM 32.2769 -80.8261 36° Northeast 458 527 33,000  Level Jacksonville Center
Fri 03:47:04 PM 32.3903 -80.7275 36° Northeast 463 533 33,000 -50 Level Jacksonville Center
Fri 03:48:04 PM 32.4931 -80.6339 38° Northeast 458 527 32,900  Descending Jacksonville Center
Fri 03:49:04 PM 32.5956 -80.5428 37° Northeast 458 527 33,000 50 Climbing Jacksonville Center
Fri 03:50:04 PM 32.6983 -80.4511 37° Northeast 458 527 33,000 -50 Level Jacksonville Center
Fri 03:51:04 PM 32.8008 -80.3619 36° Northeast 458 527 32,900 -50 Descending Jacksonville Center
Fri 03:52:04 PM 32.9014 -80.2675 38° Northeast 458 527 32,900 50 Level Jacksonville Center
Fri 03:53:04 PM 33.0039 -80.1803 36° Northeast 476 548 33,000 50 Climbing Jacksonville Center
Fri 03:54:04 PM 33.1042 -80.0881 38° Northeast 465 535 33,000  Level Jacksonville Center
Fri 03:55:04 PM 33.2064 -79.9956 37° Northeast 465 535 33,000  Level Jacksonville Center
Fri 03:56:04 PM 33.3106 -79.9050 36° Northeast 465 535 33,000  Level Jacksonville Center
Fri 03:57:04 PM 33.4128 -79.8094 38° Northeast 465 535 33,000  Level Jacksonville Center
Fri 03:58:04 PM 33.5147 -79.7189 37° Northeast 465 535 33,000  Level Jacksonville Center
Fri 03:59:04 PM 33.6167 -79.6228 38° Northeast 465 535 33,000  Level Jacksonville Center
Fri 04:00:04 PM 33.7206 -79.5292 37° Northeast 465 535 33,000 -50 Level Jacksonville Center
Fri 04:01:04 PM 33.8244 -79.4353 37° Northeast 465 535 32,900  Descending Jacksonville Center
Fri 04:02:04 PM 33.9222 -79.3464 37° Northeast 458 527 33,000 38 Climbing Jacksonville Center
Fri 04:03:42 PM 34.0928 -79.1878 38° Northeast 451 519 33,000  Level Washington Center
Fri 04:04:43 PM 34.1978 -79.0919 37° Northeast 461 531 33,000  Level Washington Center
Fri 04:05:44 PM 34.3028 -78.9983 36° Northeast 461 531 33,000  Level Washington Center
Fri 04:06:42 PM 34.4136 -78.9150 32° Northeast 461 531 33,000  Level Washington Center
Fri 04:07:43 PM 34.5372 -78.8167 33° Northeast 478 550 33,000  Level Washington Center
Fri 04:08:44 PM 34.6503 -78.7300 32° Northeast 478 550 33,000  Level Washington Center
Fri 04:09:44 PM 34.7522 -78.6558 31° Northeast 478 550 33,000  Level Washington Center
Fri 04:10:42 PM 34.8736 -78.5592 33° Northeast 473 544 33,000  Level Washington Center
Fri 04:11:44 PM 34.9842 -78.4744 32° Northeast 473 544 33,000  Level Washington Center
Fri 04:12:44 PM 35.0989 -78.3869 32° Northeast 473 544 33,000  Level Washington Center
Fri 04:13:42 PM 35.2117 -78.2994 32° Northeast 473 544 33,000  Level Washington Center
Fri 04:14:43 PM 35.3242 -78.2092 33° Northeast 473 544 33,000  Level Washington Center
Fri 04:15:44 PM 35.4408 -78.1236 31° Northeast 478 550 33,000  Level Washington Center
Fri 04:16:42 PM 35.5425 -78.0425 33° Northeast 486 559 33,000  Level Washington Center
Fri 04:17:43 PM 35.6569 -77.9567 31° Northeast 486 559 33,000  Level Washington Center
Fri 04:18:43 PM 35.7692 -77.8703 32° Northeast 486 559 33,000  Level Washington Center
Fri 04:19:44 PM 35.8836 -77.7789 33° Northeast 486 559 33,000  Level Washington Center
Fri 04:20:43 PM 35.9978 -77.6894 32° Northeast 486 559 33,000  Level Washington Center
Fri 04:21:43 PM 36.1081 -77.5869 37° Northeast 486 559 33,000  Level Washington Center
Fri 04:22:44 PM 36.2142 -77.4842 38° Northeast 486 559 33,000  Level Washington Center
Fri 04:23:42 PM 36.3200 -77.3889 36° Northeast 481 554 33,000  Level Washington Center
Fri 04:24:42 PM 36.4236 -77.2878 38° Northeast 475 547 33,000  Level Washington Center
Fri 04:25:44 PM 36.5419 -77.1742 38° Northeast 481 554 33,000  Level Washington Center
Fri 04:26:44 PM 36.6497 -77.0728 37° Northeast 481 554 33,000  Level Washington Center
Fri 04:27:42 PM 36.7614 -76.9711 36° Northeast 486 559 33,000  Level Washington Center
Fri 04:28:43 PM 36.8689 -76.8719 36° Northeast 486 559 33,000  Level Washington Center
Fri 04:29:44 PM 36.9786 -76.7722 36° Northeast 486 559 33,000  Level Washington Center
Fri 04:30:42 PM 37.0858 -76.6725 37° Northeast 486 559 33,000  Level Washington Center
Fri 04:31:43 PM 37.1953 -76.5747 35° Northeast 486 559 33,000  Level Washington Center
Fri 04:32:44 PM 37.3064 -76.4744 36° Northeast 486 559 33,000  Level Washington Center
Fri 04:33:42 PM 37.4053 -76.3842 36° Northeast 481 554 33,000  Level Washington Center
Fri 04:34:42 PM 37.5164 -76.2856 35° Northeast 486 559 33,000  Level Washington Center
Fri 04:35:43 PM 37.6253 -76.1844 36° Northeast 481 554 33,000  Level Washington Center
Fri 04:36:44 PM 37.7447 -76.0778 35° Northeast 481 554 33,000  Level Washington Center
Fri 04:37:42 PM 37.8389 -75.9836 38° Northeast 481 554 33,000  Level Washington Center
Fri 04:38:43 PM 37.9497 -75.8814 36° Northeast 482 555 33,000  Level Washington Center
Fri 04:39:44 PM 38.0583 -75.7789 37° Northeast 482 555 33,000  Level Washington Center
Fri 04:40:44 PM 38.1669 -75.6764 37° Northeast 482 555 33,000  Level Washington Center
Fri 04:41:42 PM 38.2753 -75.5758 36° Northeast 482 555 33,000  Level Washington Center
Fri 04:42:43 PM 38.3900 -75.4936 29° Northeast 482 555 33,000  Level Washington Center
Fri 04:43:44 PM 38.5150 -75.4350 20° North 468 539 33,000  Level Washington Center
Fri 04:44:42 PM 38.6400 -75.3844 18° North 468 539 33,000  Level Washington Center
Fri 04:45:44 PM 38.7669 -75.3386 16° North 468 539 33,000  Level Washington Center
Fri 04:46:42 PM 38.8919 -75.2875 18° North 468 539 33,000 -50 Level Washington Center
Fri 04:47:43 PM 39.0189 -75.2336 18° North 468 539 32,900  Descending Washington Center
Fri 04:48:43 PM 39.1419 -75.1794 19° North 463 533 33,000 50 Climbing Washington Center
Fri 04:49:42 PM 39.2667 -75.1278 18° North 463 533 33,000  Level Washington Center
Fri 04:50:42 PM 39.3767 -75.0250 36° Northeast 463 533 33,000  Level Washington Center
Fri 04:51:43 PM 39.4761 -74.9061 43° Northeast 476 548 33,000  Level Washington Center
Fri 04:52:44 PM 39.5733 -74.7867 43° Northeast 476 548 33,000 -504 Level Washington Center
Fri 04:53:42 PM 39.6847 -74.6533 43° Northeast 488 562 32,000 -958 Descending Washington Center
Fri 04:54:43 PM 39.7858 -74.5358 42° Northeast 488 562 31,100 -1,131 Descending Washington Center
Fri 04:55:44 PM 39.8889 -74.4125 43° Northeast 493 567 29,700 -1,412 Descending Washington Center
Fri 04:56:25 PM 39.9469 -74.3394 44° Northeast 486 559 28,700 -1,588 Descending New York Center
Fri 04:57:26 PM 40.0464 -74.2225 42° Northeast 486 559 27,000 -1,714 Descending New York Center
Fri 04:58:24 PM 40.1417 -74.1053 43° Northeast 480 552 25,300 -1,000 Descending New York Center
Fri 04:59:26 PM 40.2322 -73.9928 43° Northeast 465 535 25,000 -200 Descending New York Center
Fri 05:00:24 PM 40.3247 -73.8853 42° Northeast 446 513 24,900 -305 Descending New York Center
Fri 05:01:24 PM 40.4236 -73.7644 43° Northeast 441 507 24,400 -893 Descending New York Center
Fri 05:02:25 PM 40.5161 -73.6511 43° Northeast 441 507 23,100 -1,321 Descending New York Center
Fri 05:04:03 PM 40.6481 -73.4814 44° Northeast 442 509 20,900 -1,350 Descending Boston Center
Fri 05:05:05 PM 40.7406 -73.3678 43° Northeast 427 491 19,500 -919 Descending Boston Center
Fri 05:06:07 PM 40.8225 -73.2661 43° Northeast 410 472 19,000 -242 Descending Boston Center
Fri 05:07:09 PM 40.9089 -73.1675 41° Northeast 409 471 19,000  Level Boston Center
Fri 05:08:10 PM 40.9944 -73.0678 41° Northeast 409 471 19,000 -585 Level Boston Center
Fri 05:09:12 PM 41.0972 -72.9478 41° Northeast 408 470 17,800 -1,065 Descending Boston Center
Fri 05:10:14 PM 41.1797 -72.8481 42° Northeast 403 464 16,800 -968 Descending Boston Center
Fri 05:11:16 PM 41.2617 -72.7531 41° Northeast 392 451 15,800 -484 Descending Boston Center
Fri 05:12:18 PM 41.3653 -72.7242 12° North 358 412 15,800 -387 Level Boston Center
Fri 05:13:20 PM 41.4381 -72.8044 320° Northwest 346 398 15,000 -927 Descending Boston Center
Fri 05:14:21 PM 41.4761 -72.9292 292° West 340 391 13,900 -1,024 Descending Boston Center
Fri 05:15:23 PM 41.5272 -73.0356 303° West 340 391 12,900 -919 Descending Boston Center
Fri 05:16:25 PM 41.5747 -73.1436 300° West 338 389 12,000 -774 Descending Boston Center
Fri 05:17:27 PM 41.6247 -73.2606 300° West 338 389 11,300 -532 Descending Boston Center
Fri 05:18:29 PM 41.6733 -73.3708 301° West 334 384 10,900 -683 Descending Boston Center
Fri 05:19:30 PM 41.7158 -73.4703 300° West 313 360 9,900 -1,073 Descending Boston Center
Fri 05:20:32 PM 41.7517 -73.5561 299° West 273 314 8,700 -1,500 Descending Boston Center
Fri 05:21:34 PM 41.7917 -73.6436 302° West 262 302 6,800 -1,403 Descending Boston Center
Fri 05:22:36 PM 41.7908 -73.7342 269° West 272 313 5,800 -1,016 Descending Boston Center
Fri 05:23:38 PM 41.7361 -73.8150 228° Southwest 273 314 4,700 -871 Descending Boston Center
Fri 05:24:40 PM 41.6742 -73.8719 214° Southwest 266 306 4,000 -829 Descending Boston Center
Fri 05:25:41 PM 41.6186 -73.9114 208° Southwest 231 266 3,000 -732 Descending Boston Center
Fri 05:26:43 PM 41.5628 -73.9553 210° Southwest 218 251 2,500 -581 Descending Boston Center
Fri 05:27:45 PM 41.5222 -74.0000 220° Southwest 189 217 1,800 -677 Descending Boston Center
Fri 05:28:47 PM 41.5122 -74.0581 257° West 153 176 1,100 -629 Descending Boston Center
Fri 05:29:49 PM 41.5047 -74.1067 258° West 141 162 500 -581 Descending Boston Center
Fri 05:31:00 PM 41.5000 -74.1000 217° Southwest  Level FlightAware Approximate

Login

Don't have an account? Register now (free) for customized features, flight alerts, and more!